Terminal Aerodrome Forecast
Issued by NWS St Louis, MO

Home | Current Version | Previous Version | Text Only | Print | Product List | Glossary On
Versions: 1 2 3 4 5 6 7 8 9 10 11 12 13 14 15 16 17 18 19 20 21 22 23 24 25 26 27 28
000
FTUS43 KLSX 300302 AAA
TAFSTL
TAF AMD
KSTL 300302Z 3003/0106 08011KT P6SM VCTS BKN040CB OVC080
     FM300500 10013KT 6SM -SHRA VCTS OVC035CB
      TEMPO 3005/3007 3SM TSRA OVC025CB
     FM300900 11015KT 4SM -SHRA BR VCTS OVC015CB
     FM301500 14015KT 6SM -SHRA BR OVC010
     FM301800 19012KT P6SM BKN035
     FM010000 21007KT P6SM VCTS SCT040CB BKN120=

USA.gov is the U.S. government's official web portal to all federal, state and local government web resources and services.